Time;durP1;ratioP1;P1;durP2;ratioP2;P2;SDS_P1;SDS_P2;PMS_P1;PMS_P2;Temp;Humidity;BMP_temperature;BMP_pressure;BME280_temperature;BME280_humidity;BME280_pressure;Samples;Min_cycle;Max_cycle;Signal;HPM_P1;HPM_P2
2022/12/25 00:00:38;;;;;;;2.55;1.60;;;;;;;7.74;87.91;94966.88;5028774;28;20595;-79
2022/12/25 00:03:04;;;;;;;2.25;1.58;;;;;;;7.66;88.27;94975.63;5023095;28;20675;-77
2022/12/25 00:05:31;;;;;;;2.08;1.40;;;;;;;7.57;88.57;94973.94;5018148;28;20721;-77
2022/12/25 00:07:58;;;;;;;2.38;1.20;;;;;;;7.52;89.02;94980.22;5032395;28;20231;-77
2022/12/25 00:10:26;;;;;;;2.65;1.88;;;;;;;7.60;89.10;94976.84;5018584;28;20240;-78
2022/12/25 00:12:53;;;;;;;1.52;1.38;;;;;;;7.66;89.15;94985.63;5021390;28;20315;-78
2022/12/25 00:15:19;;;;;;;4.90;1.50;;;;;;;7.66;88.83;94991.81;5016890;28;20262;-79
2022/12/25 00:17:46;;;;;;;5.10;1.42;;;;;;;7.53;89.09;94992.63;5032110;28;20208;-79
2022/12/25 00:20:13;;;;;;;2.05;1.20;;;;;;;7.54;89.46;94994.22;5018929;28;20277;-78
2022/12/25 00:22:40;;;;;;;3.17;2.05;;;;;;;7.61;89.27;94993.84;5020664;28;20611;-75
2022/12/25 00:25:07;;;;;;;4.47;1.40;;;;;;;7.72;88.85;95006.81;5025266;28;20201;-77
2022/12/25 00:27:36;;;;;;;1.65;1.20;;;;;;;7.58;89.32;95000.63;5012871;28;20206;-78
2022/12/25 00:30:05;;;;;;;2.92;1.00;;;;;;;7.66;89.51;95007.19;5025708;28;20232;-77
2022/12/25 00:32:35;;;;;;;0.90;0.90;;;;;;;7.66;89.71;95013.38;5023903;28;20698;-76
2022/12/25 00:35:01;;;;;;;2.58;1.55;;;;;;;7.73;89.50;95008.41;5018701;28;20208;-77
2022/12/25 00:37:28;;;;;;;1.00;0.88;;;;;;;7.64;89.59;94999.44;5019735;28;20204;-77
2022/12/25 00:39:55;;;;;;;6.75;1.92;;;;;;;7.56;90.30;95004.69;5025369;28;20283;-77
2022/12/25 00:42:22;;;;;;;1.85;1.30;;;;;;;7.62;89.87;95004.31;5011513;28;20667;-79
2022/12/25 00:44:50;;;;;;;2.17;1.38;;;;;;;7.56;90.11;95007.41;5018273;28;20607;-77
2022/12/25 00:47:17;;;;;;;1.15;1.00;;;;;;;7.58;90.04;95016.78;5031849;28;20204;-75
2022/12/25 00:49:44;;;;;;;2.10;1.20;;;;;;;7.62;89.64;95007.00;5019760;28;20295;-77
2022/12/25 00:52:11;;;;;;;1.80;1.15;;;;;;;7.57;89.74;95009.78;5031169;28;20220;-77
2022/12/25 00:54:38;;;;;;;1.38;1.27;;;;;;;7.58;89.66;95000.63;5023349;28;20208;-77
2022/12/25 00:57:05;;;;;;;5.20;0.80;;;;;;;7.67;88.95;95004.19;5033728;28;20254;-74
2022/12/25 00:59:32;;;;;;;0.95;0.80;;;;;;;7.72;88.94;95006.81;5031263;28;20208;-76
2022/12/25 01:02:22;;;;;;;1.25;0.95;;;;;;;7.61;88.70;94994.63;5031289;28;20201;-76
2022/12/25 01:04:49;;;;;;;1.58;1.35;;;;;;;7.66;88.49;95008.00;5020030;28;20682;-78
2022/12/25 01:07:16;;;;;;;2.63;1.23;;;;;;;7.56;88.95;95005.50;5011227;28;20723;-78
2022/12/25 01:12:28;;;;;;;1.67;0.80;;;;;;;7.57;88.17;94996.31;5019408;28;20834;-79
2022/12/25 01:14:55;;;;;;;3.42;1.55;;;;;;;7.49;88.09;94997.03;5030242;28;20764;-77
2022/12/25 01:17:23;;;;;;;4.32;1.85;;;;;;;7.55;87.91;95005.78;5018641;28;20740;-77
2022/12/25 01:19:50;;;;;;;1.50;1.10;;;;;;;7.48;88.06;95006.22;5029418;28;20650;-77
2022/12/25 01:22:17;;;;;;;3.50;0.80;;;;;;;7.52;88.23;95001.78;5019126;28;20204;-75
2022/12/25 01:24:46;;;;;;;1.08;0.95;;;;;;;7.57;87.94;94996.31;5017450;28;20201;-77
2022/12/25 01:27:13;;;;;;;1.23;1.00;;;;;;;7.55;87.74;95011.97;5022667;28;20369;-77
2022/12/25 01:29:42;;;;;;;1.08;0.98;;;;;;;7.51;88.01;95005.63;5025818;28;20258;-78
2022/12/25 01:32:08;;;;;;;0.57;0.57;;;;;;;7.46;88.09;94997.63;5030447;28;20205;-78
2022/12/25 01:34:39;;;;;;;2.65;0.93;;;;;;;7.44;88.14;95005.19;5018047;28;20205;-78
2022/12/25 01:37:06;;;;;;;0.98;0.70;;;;;;;7.53;87.81;95006.09;5021744;28;20240;-78
2022/12/25 01:39:36;;;;;;;1.08;0.93;;;;;;;7.47;88.11;95001.91;5027135;28;20246;-77
2022/12/25 01:42:03;;;;;;;1.25;0.95;;;;;;;7.42;88.29;94991.22;5030198;28;20650;-77
2022/12/25 01:45:22;;;;;;;4.63;2.13;;;;;;;7.30;88.84;95004.38;5030713;28;20294;-77
2022/12/25 01:47:50;;;;;;;1.25;1.08;;;;;;;7.37;88.49;94999.41;5017371;28;20266;-78
2022/12/25 01:50:19;;;;;;;1.00;0.90;;;;;;;7.44;87.90;95005.19;5030785;28;20216;-77
2022/12/25 01:52:47;;;;;;;1.83;1.20;;;;;;;7.40;88.11;94996.09;5030144;28;20240;-77
2022/12/25 01:55:15;;;;;;;1.40;1.10;;;;;;;7.47;87.69;94989.22;5031135;28;20262;-77
2022/12/25 01:57:43;;;;;;;1.40;1.17;;;;;;;7.49;87.56;94999.72;5037524;28;20254;-77
2022/12/25 02:00:15;;;;;;;1.33;1.10;;;;;;;7.39;87.85;95002.59;5029827;28;20651;-77
2022/12/25 02:02:44;;;;;;;1.10;0.73;;;;;;;7.39;87.57;94986.41;5022917;28;20215;-76
2022/12/25 02:05:16;;;;;;;2.92;1.63;;;;;;;7.50;87.10;95004.00;5012151;28;20213;-76
2022/12/25 02:07:47;;;;;;;2.20;1.13;;;;;;;7.53;86.69;94998.00;5021641;28;20564;-77
2022/12/25 02:10:14;;;;;;;1.80;1.10;;;;;;;7.40;87.09;95004.19;5012350;28;20290;-76
2022/12/25 02:12:42;;;;;;;3.20;1.73;;;;;;;7.39;87.23;95005.28;5029861;28;20228;-77
2022/12/25 02:15:13;;;;;;;1.52;1.05;;;;;;;7.32;87.47;95012.97;5017101;28;20266;-78
2022/12/25 02:17:47;;;;;;;4.53;1.65;;;;;;;7.11;87.56;94997.16;5019739;28;20219;-77
2022/12/25 02:20:33;;;;;;;4.03;1.33;;;;;;;7.25;87.30;95004.47;5023395;28;20719;-78
2022/12/25 02:23:34;;;;;;;1.17;1.00;;;;;;;7.20;87.74;95009.97;5023305;28;20200;-78
2022/12/25 02:26:16;;;;;;;1.05;0.85;;;;;;;7.20;87.57;95007.25;5023062;28;20288;-76
2022/12/25 02:28:52;;;;;;;4.07;1.35;;;;;;;7.27;86.35;95007.66;5009618;28;20193;-76
2022/12/25 02:31:27;;;;;;;1.10;1.00;;;;;;;7.28;86.26;95001.19;5026106;28;20199;-78
2022/12/25 02:34:02;;;;;;;2.17;1.45;;;;;;;7.16;86.05;95006.25;5029985;28;20220;-77
2022/12/25 02:36:35;;;;;;;1.80;1.15;;;;;;;7.21;86.21;95011.56;5016440;28;20203;-77
2022/12/25 02:41:52;;;;;;;2.00;1.20;;;;;;;7.27;85.59;95011.16;5019461;28;20670;-78
2022/12/25 03:07:04;;;;;;;2.35;0.95;;;;;;;7.07;83.90;95028.50;5014356;28;20232;-78
2022/12/25 03:12:28;;;;;;;1.35;0.80;;;;;;;7.13;82.88;95029.97;5023671;28;20204;-78
2022/12/25 03:17:40;;;;;;;1.08;1.02;;;;;;;7.23;81.87;95047.09;5019706;28;20247;-78
2022/12/25 03:28:22;;;;;;;1.92;1.25;;;;;;;7.24;81.48;95054.88;5029396;28;20613;-78
2022/12/25 03:31:10;;;;;;;0.82;0.80;;;;;;;7.19;81.67;95046.06;5029594;28;20274;-78
2022/12/25 03:35:21;;;;;;;4.43;0.98;;;;;;;7.21;81.40;95043.88;5017177;28;20347;-77
2022/12/25 03:36:49;;;;;;;1.33;0.68;;;;;;;7.30;81.58;95047.50;5029372;28;20667;-78
2022/12/25 04:37:11;;;;;;;1.05;0.95;;;;;;;6.80;82.31;95103.00;5022386;28;20710;-76
2022/12/25 04:39:39;;;;;;;6.47;1.13;;;;;;;6.65;82.72;95093.25;5018018;28;20204;-78
2022/12/25 04:42:06;;;;;;;1.15;0.88;;;;;;;6.79;83.10;95102.19;5031491;28;20204;-76
2022/12/25 04:44:33;;;;;;;1.13;0.70;;;;;;;6.71;83.12;95110.91;5018113;28;20208;-79
2022/12/25 04:46:59;;;;;;;1.42;0.90;;;;;;;6.74;83.44;95121.09;5021563;28;20208;-76
2022/12/25 04:49:26;;;;;;;2.55;1.20;;;;;;;6.77;83.90;95112.44;5029205;28;20224;-78
2022/12/25 04:51:53;;;;;;;1.23;0.90;;;;;;;6.68;84.25;95112.31;5030976;28;20297;-77
2022/12/25 04:54:20;;;;;;;0.85;0.82;;;;;;;6.66;84.74;95124.44;5026436;28;20699;-77
2022/12/25 04:56:48;;;;;;;1.20;1.10;;;;;;;6.57;85.15;95115.41;5029559;28;20200;-79
2022/12/25 04:59:15;;;;;;;1.05;1.02;;;;;;;6.55;85.39;95117.63;5032369;28;20254;-76
2022/12/25 05:01:41;;;;;;;1.85;1.02;;;;;;;6.56;85.46;95121.91;5019856;28;20201;-79
2022/12/25 05:04:08;;;;;;;1.48;0.95;;;;;;;6.59;85.21;95115.91;5030205;28;20663;-78
2022/12/25 05:06:35;;;;;;;2.22;1.13;;;;;;;6.58;84.90;95119.69;5019080;28;20352;-77
2022/12/25 05:09:02;;;;;;;1.35;1.10;;;;;;;6.62;84.72;95126.13;5030973;28;20208;-76
2022/12/25 05:11:28;;;;;;;0.90;0.90;;;;;;;6.50;85.00;95117.66;5031485;28;20649;-77
2022/12/25 05:13:57;;;;;;;5.00;1.40;;;;;;;6.50;85.00;95113.09;5025426;28;20291;-78
2022/12/25 05:16:25;;;;;;;0.95;0.68;;;;;;;6.67;83.75;95113.41;5023931;28;20208;-77
2022/12/25 05:18:52;;;;;;;0.95;0.75;;;;;;;6.76;83.06;95110.84;5017724;28;20266;-76
2022/12/25 05:21:19;;;;;;;0.95;0.75;;;;;;;6.76;82.80;95114.34;5019136;28;20270;-78
2022/12/25 05:23:50;;;;;;;3.13;0.98;;;;;;;6.83;82.49;95116.69;5025386;28;20207;-77
2022/12/25 05:26:19;;;;;;;1.20;0.77;;;;;;;6.79;82.49;95121.03;5024922;28;20258;-78
2022/12/25 05:28:46;;;;;;;0.85;0.70;;;;;;;6.83;82.44;95121.25;5011503;28;20209;-77
2022/12/25 05:31:14;;;;;;;1.15;0.77;;;;;;;6.88;81.78;95121.97;5024887;28;20200;-77
2022/12/25 05:33:41;;;;;;;1.52;0.80;;;;;;;6.94;81.33;95126.19;5018925;28;20286;-78
2022/12/25 05:36:10;;;;;;;0.47;0.47;;;;;;;7.06;80.24;95129.25;5017636;28;20211;-74
2022/12/25 05:38:37;;;;;;;2.00;0.85;;;;;;;7.03;80.52;95124.44;5023155;28;20213;-76
2022/12/25 05:41:04;;;;;;;0.98;0.55;;;;;;;7.11;79.61;95128.34;5025739;28;20204;-77
2022/12/25 05:43:31;;;;;;;0.30;0.30;;;;;;;7.02;80.01;95128.22;5022902;28;20263;-77
2022/12/25 05:45:58;;;;;;;0.40;0.40;;;;;;;7.09;79.21;95130.56;5012875;28;20205;-76
2022/12/25 05:48:26;;;;;;;0.30;0.30;;;;;;;7.05;79.32;95127.66;5022723;28;20201;-77
2022/12/25 05:50:53;;;;;;;1.45;0.68;;;;;;;7.02;79.12;95132.81;5027858;28;20266;-78
2022/12/25 05:53:19;;;;;;;0.20;0.20;;;;;;;7.02;78.66;95133.59;5031044;28;20208;-77
2022/12/25 05:55:55;;;;;;;0.57;0.55;;;;;;;7.16;78.15;95149.03;5017417;28;20286;-77
2022/12/25 05:58:22;;;;;;;1.38;0.75;;;;;;;7.17;78.23;95150.63;5038392;28;20250;-77
2022/12/25 06:00:49;;;;;;;0.63;0.60;;;;;;;7.27;77.61;95145.88;5025052;28;20275;-76
2022/12/25 06:03:15;;;;;;;0.80;0.57;;;;;;;7.31;77.59;95140.72;5022363;28;20200;-76
2022/12/25 06:05:44;;;;;;;0.50;0.50;;;;;;;7.41;77.27;95132.44;5017289;28;20595;-77
2022/12/25 06:08:10;;;;;;;1.63;0.93;;;;;;;7.41;76.99;95145.94;5018078;28;20204;-76
2022/12/25 06:10:37;;;;;;;0.82;0.80;;;;;;;7.39;77.05;95153.50;5029454;28;20618;-77
2022/12/25 06:13:04;;;;;;;0.50;0.50;;;;;;;7.51;76.87;95148.47;5030531;28;20219;-75
2022/12/25 06:15:31;;;;;;;0.50;0.50;;;;;;;7.66;76.33;95152.78;5016869;28;20232;-77
2022/12/25 06:18:00;;;;;;;0.40;0.40;;;;;;;7.84;75.57;95163.53;5017538;28;20259;-77
2022/12/25 06:20:27;;;;;;;0.50;0.50;;;;;;;7.91;75.38;95165.06;5024018;28;20275;-78
2022/12/25 06:22:55;;;;;;;0.93;0.68;;;;;;;7.92;75.35;95167.44;5024294;28;20278;-78
2022/12/25 06:25:22;;;;;;;0.50;0.50;;;;;;;8.01;74.87;95170.25;5017099;28;20208;-77
2022/12/25 06:27:49;;;;;;;0.32;0.32;;;;;;;8.00;74.73;95179.44;5016644;28;20744;-77
2022/12/25 06:30:16;;;;;;;0.50;0.50;;;;;;;7.97;75.21;95177.34;5009925;28;20243;-77
2022/12/25 06:32:43;;;;;;;0.50;0.50;;;;;;;7.80;75.63;95176.00;5023326;28;20199;-78
2022/12/25 06:35:09;;;;;;;3.33;0.50;;;;;;;7.78;75.75;95185.50;5017373;28;20791;-78
2022/12/25 06:37:36;;;;;;;0.88;0.77;;;;;;;7.78;76.01;95182.81;5030224;28;20612;-78
2022/12/25 06:40:05;;;;;;;1.05;0.77;;;;;;;7.77;76.21;95192.78;5022012;28;20201;-78
2022/12/25 06:42:32;;;;;;;0.35;0.35;;;;;;;7.75;76.12;95189.59;5023906;28;20293;-78
2022/12/25 06:44:59;;;;;;;1.92;0.90;;;;;;;7.76;76.36;95190.38;5022465;28;20263;-78
2022/12/25 06:47:26;;;;;;;1.27;0.73;;;;;;;7.82;76.63;95200.78;5023311;28;20200;-78
2022/12/25 06:49:52;;;;;;;0.70;0.63;;;;;;;7.88;76.02;95198.00;5018607;28;20733;-77
2022/12/25 06:52:21;;;;;;;0.65;0.65;;;;;;;7.92;76.13;95199.03;5016729;28;20221;-78
2022/12/25 06:54:48;;;;;;;0.40;0.40;;;;;;;7.99;75.88;95210.22;5029636;28;20231;-75
2022/12/25 06:57:16;;;;;;;2.13;0.65;;;;;;;8.03;75.39;95213.94;5034197;28;20200;-77
2022/12/25 06:59:43;;;;;;;6.85;0.80;;;;;;;8.07;75.16;95204.13;5049667;28;20289;-77
2022/12/25 07:02:17;;;;;;;0.52;0.52;;;;;;;8.17;74.99;95222.84;5033615;28;20231;-76
2022/12/25 07:04:43;;;;;;;1.02;0.80;;;;;;;8.14;75.05;95218.03;5029702;28;20201;-77
2022/12/25 07:07:13;;;;;;;4.43;1.77;;;;;;;8.21;74.74;95223.84;5026087;28;20706;-76
2022/12/25 07:09:41;;;;;;;2.78;1.52;;;;;;;8.24;74.93;95228.63;5020188;28;20286;-78
2022/12/25 07:12:15;;;;;;;2.15;0.60;;;;;;;8.32;74.86;95238.81;5024935;28;20267;-76
2022/12/25 07:14:43;;;;;;;0.47;0.47;;;;;;;8.38;74.29;95228.69;5023304;28;20216;-76
2022/12/25 07:17:10;;;;;;;1.80;1.00;;;;;;;8.40;74.60;95235.41;5020272;28;20209;-76
2022/12/25 07:19:37;;;;;;;1.42;0.88;;;;;;;8.48;74.19;95244.69;5021197;28;20632;-77
2022/12/25 07:22:04;;;;;;;1.13;0.93;;;;;;;8.51;74.33;95239.50;5026679;28;20205;-77
2022/12/25 07:24:31;;;;;;;2.03;1.08;;;;;;;8.53;74.47;95253.50;5013478;28;20587;-77
2022/12/25 07:26:58;;;;;;;1.20;1.00;;;;;;;8.54;74.11;95249.72;5027395;28;20263;-76
2022/12/25 07:29:24;;;;;;;0.77;0.73;;;;;;;8.57;74.24;95251.00;5026546;28;20212;-78
2022/12/25 07:31:53;;;;;;;1.00;0.63;;;;;;;8.60;74.09;95241.53;5033149;28;20201;-77
2022/12/25 07:34:21;;;;;;;2.60;0.60;;;;;;;8.67;74.29;95252.72;5020313;28;20307;-77
2022/12/25 07:36:48;;;;;;;4.00;1.40;;;;;;;8.68;73.85;95251.63;5026080;28;20204;-77
2022/12/25 07:39:15;;;;;;;1.67;1.20;;;;;;;8.71;74.16;95259.94;5026299;28;20266;-77
2022/12/25 07:41:41;;;;;;;1.98;1.05;;;;;;;8.76;73.91;95267.09;5033185;28;20289;-77
2022/12/25 07:44:08;;;;;;;1.10;0.77;;;;;;;8.74;73.88;95258.53;5020210;28;20219;-75
2022/12/25 07:46:40;;;;;;;1.13;0.93;;;;;;;8.77;74.05;95272.22;5020116;28;20204;-79
2022/12/25 07:49:08;;;;;;;0.82;0.68;;;;;;;8.83;73.75;95295.34;5032877;28;20204;-77
2022/12/25 07:51:35;;;;;;;2.00;0.82;;;;;;;8.89;73.63;95283.31;5033257;28;20266;-77
2022/12/25 07:54:02;;;;;;;0.85;0.80;;;;;;;8.89;73.49;95290.63;5030434;28;20298;-77
2022/12/25 07:56:28;;;;;;;0.95;0.68;;;;;;;8.94;73.19;95289.72;5026182;28;20549;-77
2022/12/25 07:58:55;;;;;;;0.82;0.65;;;;;;;9.00;73.15;95277.72;5036331;28;20684;-76
2022/12/25 08:01:25;;;;;;;1.10;1.00;;;;;;;9.04;73.07;95287.63;5023560;28;20201;-76
2022/12/25 08:03:54;;;;;;;2.38;0.93;;;;;;;9.01;72.90;95296.34;5016486;28;20208;-79
2022/12/25 08:06:25;;;;;;;1.40;0.80;;;;;;;9.15;73.19;95307.97;5032689;28;20262;-77
2022/12/25 08:08:52;;;;;;;0.45;0.45;;;;;;;9.16;73.08;95311.44;5019418;28;20196;-76
2022/12/25 08:11:19;;;;;;;1.67;0.50;;;;;;;9.20;72.45;95298.94;5021429;28;20641;-79
2022/12/25 08:13:46;;;;;;;1.38;0.55;;;;;;;9.20;72.99;95305.13;5026055;28;20939;-77
2022/12/25 08:16:12;;;;;;;3.83;0.63;;;;;;;9.21;72.98;95301.31;5024525;28;20232;-74
2022/12/25 08:18:40;;;;;;;1.88;0.60;;;;;;;9.18;72.60;95312.75;5019472;28;20354;-76
2022/12/25 08:21:08;;;;;;;1.85;0.60;;;;;;;9.21;72.75;95312.13;5021045;28;20205;-77
2022/12/25 08:23:38;;;;;;;0.40;0.40;;;;;;;9.34;72.10;95302.41;5031920;28;20238;-79
2022/12/25 08:26:08;;;;;;;0.85;0.60;;;;;;;9.25;72.66;95296.94;5018569;28;20280;-78
2022/12/25 08:28:36;;;;;;;0.95;0.88;;;;;;;9.40;72.25;95297.72;5025785;28;20231;-78
2022/12/25 08:31:08;;;;;;;0.60;0.60;;;;;;;9.51;72.40;95304.50;5025989;28;20258;-78
2022/12/25 08:33:36;;;;;;;1.13;0.90;;;;;;;9.58;71.46;95292.13;5012207;28;20205;-77
2022/12/25 08:36:04;;;;;;;4.80;1.48;;;;;;;9.64;71.88;95287.44;5026884;28;20306;-79
2022/12/25 08:38:31;;;;;;;2.03;1.20;;;;;;;9.71;71.17;95289.69;5023819;28;20235;-76
2022/12/25 08:40:59;;;;;;;2.38;1.10;;;;;;;9.62;71.35;95297.75;5025324;28;20201;-76
2022/12/25 08:43:26;;;;;;;4.13;1.80;;;;;;;9.53;71.53;95299.59;5020627;28;20774;-76
2022/12/25 08:45:53;;;;;;;1.90;1.25;;;;;;;9.65;71.04;95304.47;5031575;28;20208;-79
2022/12/25 08:48:19;;;;;;;1.45;0.77;;;;;;;9.66;70.92;95304.16;5032128;28;20254;-77
2022/12/25 08:50:47;;;;;;;2.00;1.00;;;;;;;9.73;70.75;95309.13;5031519;28;20579;-75
2022/12/25 08:53:14;;;;;;;1.58;0.88;;;;;;;9.70;70.76;95307.88;5031882;28;20208;-76
2022/12/25 08:55:41;;;;;;;0.70;0.68;;;;;;;9.75;71.00;95309.63;5018354;28;20286;-78
2022/12/25 08:58:10;;;;;;;0.63;0.52;;;;;;;9.68;70.72;95310.06;5039395;28;20270;-78
2022/12/25 09:00:37;;;;;;;1.77;1.15;;;;;;;9.71;70.67;95304.03;5028126;28;20255;-76
2022/12/25 09:03:04;;;;;;;1.55;1.02;;;;;;;9.90;70.60;95301.97;5022033;28;20208;-78
2022/12/25 09:05:31;;;;;;;0.90;0.52;;;;;;;10.04;69.67;95301.13;5018141;28;20208;-77
2022/12/25 09:07:57;;;;;;;0.75;0.52;;;;;;;10.06;69.83;95320.56;5020528;28;20255;-77
2022/12/25 09:10:24;;;;;;;0.68;0.68;;;;;;;10.00;69.79;95317.16;5028301;28;20240;-78
2022/12/25 09:12:51;;;;;;;5.28;1.10;;;;;;;10.14;70.12;95322.50;5020852;28;20212;-79
2022/12/25 09:15:19;;;;;;;3.50;1.05;;;;;;;10.19;69.82;95304.28;5024868;28;20244;-78
2022/12/25 09:17:46;;;;;;;1.70;0.70;;;;;;;10.15;69.04;95319.50;5022603;28;20209;-76
2022/12/25 09:20:13;;;;;;;0.38;0.38;;;;;;;10.22;68.66;95309.09;5017938;28;20232;-77
2022/12/25 09:22:39;;;;;;;1.35;0.98;;;;;;;10.38;68.67;95306.81;5020110;28;20260;-77
2022/12/25 09:25:06;;;;;;;1.60;0.93;;;;;;;10.51;68.38;95305.94;5025087;28;20213;-78
2022/12/25 09:27:33;;;;;;;1.08;0.82;;;;;;;10.53;67.34;95298.28;5022613;28;20274;-78
2022/12/25 09:30:00;;;;;;;0.50;0.50;;;;;;;10.42;67.57;95307.78;5018228;28;20258;-78
2022/12/25 09:32:28;;;;;;;0.77;0.77;;;;;;;10.47;67.43;95314.97;5019637;28;20660;-77
2022/12/25 09:34:55;;;;;;;0.77;0.77;;;;;;;10.56;67.36;95311.19;5029830;28;20235;-77
2022/12/25 09:37:21;;;;;;;5.53;0.75;;;;;;;10.67;66.44;95304.41;5031044;28;20200;-77
2022/12/25 09:39:48;;;;;;;1.25;0.80;;;;;;;10.63;66.87;95298.03;5012204;28;20206;-78
2022/12/25 09:42:19;;;;;;;1.13;0.60;;;;;;;10.50;66.04;95298.91;5023230;28;20264;-74
2022/12/25 09:44:51;;;;;;;2.80;0.95;;;;;;;10.57;66.66;95304.66;5017526;28;20267;-78
2022/12/25 09:47:22;;;;;;;0.77;0.57;;;;;;;10.82;66.06;95289.66;5017971;28;20248;-78
2022/12/25 09:49:56;;;;;;;0.80;0.70;;;;;;;10.89;65.27;95289.22;5019206;28;20204;-78
2022/12/25 09:52:29;;;;;;;2.53;0.90;;;;;;;10.96;64.55;95289.53;5014906;28;20259;-78
2022/12/25 09:55:03;;;;;;;0.40;0.40;;;;;;;10.79;64.61;95289.50;5020759;28;20675;-77
2022/12/25 09:57:29;;;;;;;2.00;0.52;;;;;;;10.77;64.03;95289.00;5042474;28;20716;-74
2022/12/25 09:59:56;;;;;;;1.63;0.77;;;;;;;10.87;64.53;95286.00;5038883;28;20208;-78
2022/12/25 10:02:36;;;;;;;1.85;0.73;;;;;;;11.04;63.58;95281.47;5025536;28;20236;-78
2022/12/25 10:05:31;;;;;;;2.92;1.20;;;;;;;10.97;64.02;95281.09;5024630;28;20204;-77
2022/12/25 10:08:11;;;;;;;1.40;0.70;;;;;;;11.16;63.67;95280.84;5021871;28;20228;-78
2022/12/25 10:10:52;;;;;;;1.52;0.98;;;;;;;11.15;63.44;95286.59;5016294;28;20614;-79
2022/12/25 10:13:38;;;;;;;2.25;1.38;;;;;;;11.30;63.00;95284.25;5028844;28;20702;-78
2022/12/25 10:16:17;;;;;;;1.42;0.90;;;;;;;11.31;63.00;95277.69;5020505;28;20764;-77
2022/12/25 10:19:10;;;;;;;4.55;1.10;;;;;;;11.31;62.62;95275.00;5016528;28;20641;-78
2022/12/25 10:21:38;;;;;;;2.60;1.20;;;;;;;11.28;62.26;95278.31;5030273;28;20193;-78
2022/12/25 10:24:11;;;;;;;1.75;1.02;;;;;;;11.12;63.80;95277.16;5020523;28;20212;-78
2022/12/25 10:26:38;;;;;;;1.23;0.82;;;;;;;11.12;63.17;95285.28;5024231;28;20197;-78
2022/12/25 10:29:13;;;;;;;3.72;1.55;;;;;;;11.31;63.11;95269.56;5021384;28;20725;-80
2022/12/25 10:31:41;;;;;;;3.08;1.48;;;;;;;11.43;62.69;95270.84;5017461;28;20194;-76
2022/12/25 10:34:11;;;;;;;1.38;1.10;;;;;;;11.43;62.53;95276.28;5017743;28;20209;-77
2022/12/25 10:36:41;;;;;;;3.17;1.73;;;;;;;11.44;62.74;95273.25;5030262;28;20223;-77
2022/12/25 10:39:17;;;;;;;3.92;1.35;;;;;;;11.40;62.82;95278.50;5016732;28;20660;-78
2022/12/25 10:42:02;;;;;;;2.20;1.13;;;;;;;11.48;62.57;95273.44;5021564;28;20608;-79
2022/12/25 10:44:31;;;;;;;1.15;0.57;;;;;;;11.29;61.86;95274.50;5023612;28;20205;-75
2022/12/25 10:46:59;;;;;;;1.20;0.95;;;;;;;11.29;62.85;95279.13;5021622;28;20204;-78
2022/12/25 10:49:30;;;;;;;1.02;0.90;;;;;;;11.28;62.57;95272.91;5030040;28;20193;-79
2022/12/25 10:51:59;;;;;;;1.35;0.90;;;;;;;11.17;62.90;95277.03;5030591;28;20319;-77
2022/12/25 10:54:27;;;;;;;1.52;0.88;;;;;;;11.13;63.30;95276.06;5029940;28;20251;-75
2022/12/25 10:56:59;;;;;;;1.50;0.90;;;;;;;11.27;63.26;95274.00;5030769;28;20624;-78
2022/12/25 10:59:27;;;;;;;4.07;1.17;;;;;;;11.26;63.55;95267.00;5017492;28;20204;-77
2022/12/25 11:01:54;;;;;;;3.17;0.90;;;;;;;11.24;63.43;95280.06;5029523;28;20235;-76
2022/12/25 11:04:25;;;;;;;2.30;0.93;;;;;;;11.30;63.37;95265.25;5029933;28;20235;-76
2022/12/25 11:07:05;;;;;;;0.85;0.82;;;;;;;11.27;64.03;95274.00;5028224;28;20200;-74
2022/12/25 11:09:32;;;;;;;8.40;1.58;;;;;;;11.45;63.34;95279.47;5009599;28;20284;-77
2022/12/25 11:11:59;;;;;;;0.70;0.70;;;;;;;11.33;63.41;95267.34;5022908;28;20193;-77
2022/12/25 11:14:28;;;;;;;1.52;1.02;;;;;;;11.33;63.54;95267.34;5021174;28;20192;-80
2022/12/25 11:16:54;;;;;;;2.47;1.30;;;;;;;11.42;63.38;95270.06;5012458;28;20236;-78
2022/12/25 11:19:27;;;;;;;1.25;0.80;;;;;;;11.35;63.73;95270.50;5021099;28;20232;-75
2022/12/25 11:21:56;;;;;;;2.33;1.02;;;;;;;11.47;63.78;95274.53;5029829;28;20291;-79
2022/12/25 11:24:28;;;;;;;2.38;1.30;;;;;;;11.51;63.06;95264.63;5017634;28;20873;-76
2022/12/25 11:26:59;;;;;;;2.13;0.85;;;;;;;11.50;63.17;95265.75;5029760;28;20196;-77
2022/12/25 11:29:35;;;;;;;2.55;0.90;;;;;;;11.44;63.60;95280.59;5016970;28;20209;-77
2022/12/25 11:32:03;;;;;;;3.95;1.05;;;;;;;11.58;63.17;95275.84;5021752;28;20560;-78
2022/12/25 11:34:33;;;;;;;1.27;0.82;;;;;;;11.60;63.53;95273.59;5023998;28;20335;-77
2022/12/25 11:37:02;;;;;;;2.33;1.20;;;;;;;11.53;63.41;95270.53;5019376;28;20710;-77
2022/12/25 11:39:32;;;;;;;1.92;1.10;;;;;;;11.78;63.16;95271.72;5016728;28;20208;-78
2022/12/25 11:42:04;;;;;;;0.98;0.75;;;;;;;11.82;62.33;95278.09;5029393;28;20212;-77
2022/12/25 11:44:43;;;;;;;1.58;0.50;;;;;;;11.88;62.75;95277.63;5016277;28;20255;-76
2022/12/25 11:47:18;;;;;;;0.88;0.77;;;;;;;11.56;62.38;95259.06;5016466;28;20258;-76
2022/12/25 11:49:50;;;;;;;1.80;0.82;;;;;;;11.47;62.75;95267.19;5028260;28;20231;-77
2022/12/25 11:52:19;;;;;;;1.50;0.93;;;;;;;11.40;62.43;95262.22;5029490;28;20192;-77
2022/12/25 11:54:55;;;;;;;1.23;0.90;;;;;;;11.42;62.69;95280.91;5020256;28;20220;-79
2022/12/25 11:57:26;;;;;;;3.17;0.70;;;;;;;11.28;63.37;95278.31;5033741;28;20319;-78
2022/12/25 11:59:58;;;;;;;3.20;0.95;;;;;;;11.37;63.59;95272.91;5029389;28;20197;-79
2022/12/25 12:02:33;;;;;;;3.92;1.65;;;;;;;11.53;62.67;95265.91;5026422;28;20197;-79
2022/12/25 12:05:13;;;;;;;1.98;1.10;;;;;;;11.67;62.53;95272.00;5013315;28;20200;-79
2022/12/25 12:07:55;;;;;;;1.85;1.00;;;;;;;11.61;62.20;95273.28;5020969;28;20200;-77
2022/12/25 12:10:32;;;;;;;5.35;1.02;;;;;;;11.45;62.42;95268.63;5032370;28;20302;-77
2022/12/25 12:13:12;;;;;;;0.80;0.80;;;;;;;11.43;62.66;95266.22;5032926;28;20192;-75
2022/12/25 12:15:43;;;;;;;5.30;1.10;;;;;;;11.54;62.45;95272.94;5019244;28;20216;-78
2022/12/25 12:18:19;;;;;;;1.30;0.98;;;;;;;11.47;63.24;95266.41;5031890;28;20220;-78
2022/12/25 12:20:58;;;;;;;1.02;0.80;;;;;;;11.36;62.67;95269.41;5020292;28;21032;-78
2022/12/25 12:23:26;;;;;;;1.52;1.05;;;;;;;11.29;63.08;95260.94;5018562;28;20646;-79
2022/12/25 12:25:55;;;;;;;1.40;1.10;;;;;;;11.47;63.26;95271.84;5021521;28;20630;-78
2022/12/25 12:28:25;;;;;;;0.88;0.85;;;;;;;11.51;62.75;95273.56;5029803;28;21026;-78
2022/12/25 12:31:04;;;;;;;1.67;1.15;;;;;;;11.47;62.67;95274.53;5032064;28;20208;-79
2022/12/25 12:33:34;;;;;;;2.92;1.35;;;;;;;11.53;62.61;95286.81;5019116;28;20327;-76
2022/12/25 12:36:04;;;;;;;2.20;0.95;;;;;;;11.48;61.89;95285.06;5018743;28;20267;-75
2022/12/25 12:38:32;;;;;;;1.27;0.95;;;;;;;11.32;62.13;95268.44;5019537;28;20663;-78
2022/12/25 12:41:03;;;;;;;3.42;1.45;;;;;;;11.54;62.40;95291.13;5018791;28;20269;-80
2022/12/25 12:43:34;;;;;;;2.10;1.20;;;;;;;11.59;62.32;95291.00;5023984;28;20193;-79
2022/12/25 12:46:06;;;;;;;4.00;1.42;;;;;;;11.50;62.66;95292.88;5024747;28;20853;-78
2022/12/25 12:48:44;;;;;;;2.55;1.15;;;;;;;11.55;61.94;95295.44;5012036;28;20239;-77
2022/12/25 12:51:13;;;;;;;1.70;0.77;;;;;;;11.36;62.65;95291.09;5025626;28;20217;-77
2022/12/25 12:53:42;;;;;;;2.22;1.42;;;;;;;11.34;63.08;95296.03;5024779;28;20200;-78
2022/12/25 12:56:22;;;;;;;3.58;1.13;;;;;;;11.38;62.39;95301.63;5018646;28;20270;-74
2022/12/25 12:58:52;;;;;;;2.50;1.15;;;;;;;11.33;62.75;95299.88;5029580;28;20196;-77
2022/12/25 13:01:34;;;;;;;2.40;1.00;;;;;;;11.28;62.07;95310.88;5021580;28;20208;-80
2022/12/25 13:04:38;;;;;;;3.33;1.10;;;;;;;11.21;62.71;95305.09;5018500;28;20287;-78
2022/12/25 13:07:15;;;;;;;2.20;1.13;;;;;;;11.24;62.47;95298.25;4973818;28;20616;-78
2022/12/25 13:10:03;;;;;;;2.67;1.15;;;;;;;11.15;62.26;95305.56;5023161;28;20232;-76
2022/12/25 13:12:31;;;;;;;2.05;1.30;;;;;;;11.13;62.45;95305.88;5023379;28;20263;-79
2022/12/25 13:14:58;;;;;;;2.53;0.90;;;;;;;11.16;62.30;95305.25;5024780;28;20204;-79
2022/12/25 13:17:26;;;;;;;2.72;1.23;;;;;;;11.22;62.53;95309.41;5011127;28;20591;-80
2022/12/25 13:19:56;;;;;;;2.03;1.10;;;;;;;11.09;61.97;95304.91;5025006;28;20204;-77
2022/12/25 13:22:26;;;;;;;2.42;1.17;;;;;;;11.00;62.24;95301.38;5021061;28;20251;-78
2022/12/25 13:24:58;;;;;;;1.98;0.90;;;;;;;10.90;62.60;95304.38;5015199;28;20220;-78
2022/12/25 13:27:27;;;;;;;3.00;1.50;;;;;;;10.89;62.36;95313.59;5021256;28;20211;-76
2022/12/25 13:29:56;;;;;;;3.42;1.48;;;;;;;10.85;62.24;95307.19;5027008;28;20209;-78
2022/12/25 13:32:25;;;;;;;1.45;1.10;;;;;;;10.87;62.68;95313.13;5022362;28;20204;-80